sensor_id;sensor_type;location;lat;lon;timestamp;pressure;altitude;pressure_sealevel;temperature;humidity
51468;BME280;37545;45.302;-122.946;2023-05-29T00:01:24;100795.78;;;26.33;32.35
51468;BME280;37545;45.302;-122.946;2023-05-29T00:03:54;100791.28;;;26.35;31.81
51468;BME280;37545;45.302;-122.946;2023-05-29T00:06:23;100795.44;;;26.42;32.97
51468;BME280;37545;45.302;-122.946;2023-05-29T00:08:52;100793.31;;;26.52;32.95
51468;BME280;37545;45.302;-122.946;2023-05-29T00:11:23;100784.50;;;26.51;32.25
51468;BME280;37545;45.302;-122.946;2023-05-29T00:13:51;100783.81;;;26.46;32.86
51468;BME280;37545;45.302;-122.946;2023-05-29T00:16:21;100775.94;;;26.43;32.94
51468;BME280;37545;45.302;-122.946;2023-05-29T00:18:50;100778.75;;;26.39;32.12
51468;BME280;37545;45.302;-122.946;2023-05-29T00:21:20;100773.88;;;26.28;32.38
51468;BME280;37545;45.302;-122.946;2023-05-29T00:23:50;100771.41;;;26.22;33.20
51468;BME280;37545;45.302;-122.946;2023-05-29T00:26:19;100772.41;;;26.19;33.17
51468;BME280;37545;45.302;-122.946;2023-05-29T00:28:47;100771.41;;;26.22;33.03
51468;BME280;37545;45.302;-122.946;2023-05-29T00:31:16;100772.22;;;26.24;33.16
51468;BME280;37545;45.302;-122.946;2023-05-29T00:33:47;100764.38;;;26.21;32.40
51468;BME280;37545;45.302;-122.946;2023-05-29T00:36:15;100757.34;;;26.20;33.18
51468;BME280;37545;45.302;-122.946;2023-05-29T00:38:46;100755.72;;;26.16;32.14
51468;BME280;37545;45.302;-122.946;2023-05-29T00:41:15;100753.94;;;26.16;33.30
51468;BME280;37545;45.302;-122.946;2023-05-29T00:43:43;100748.69;;;26.15;33.61
51468;BME280;37545;45.302;-122.946;2023-05-29T00:46:14;100754.72;;;26.18;33.44
51468;BME280;37545;45.302;-122.946;2023-05-29T00:48:46;100743.22;;;26.19;32.38
51468;BME280;37545;45.302;-122.946;2023-05-29T00:51:16;100725.72;;;26.13;32.38
51468;BME280;37545;45.302;-122.946;2023-05-29T00:53:46;100737.16;;;26.16;32.84
51468;BME280;37545;45.302;-122.946;2023-05-29T00:56:17;100739.09;;;26.10;32.37
51468;BME280;37545;45.302;-122.946;2023-05-29T00:58:47;100732.97;;;26.08;31.92
51468;BME280;37545;45.302;-122.946;2023-05-29T01:01:17;100737.38;;;26.09;32.07
51468;BME280;37545;45.302;-122.946;2023-05-29T01:03:46;100736.56;;;26.07;32.30
51468;BME280;37545;45.302;-122.946;2023-05-29T01:06:15;100728.94;;;25.98;31.09
51468;BME280;37545;45.302;-122.946;2023-05-29T01:08:45;100729.13;;;25.92;32.20
51468;BME280;37545;45.302;-122.946;2023-05-29T01:11:22;100724.00;;;25.86;32.10
51468;BME280;37545;45.302;-122.946;2023-05-29T01:13:56;100731.09;;;25.87;35.11
51468;BME280;37545;45.302;-122.946;2023-05-29T01:16:33;100724.00;;;25.86;36.54
51468;BME280;37545;45.302;-122.946;2023-05-29T01:19:13;100716.94;;;25.86;33.67
51468;BME280;37545;45.302;-122.946;2023-05-29T01:21:57;100723.09;;;25.88;32.37
51468;BME280;37545;45.302;-122.946;2023-05-29T01:24:38;100726.59;;;25.89;33.18
51468;BME280;37545;45.302;-122.946;2023-05-29T01:27:12;100729.31;;;25.86;32.25
51468;BME280;37545;45.302;-122.946;2023-05-29T01:29:43;100725.13;;;25.79;32.88
51468;BME280;37545;45.302;-122.946;2023-05-29T01:32:14;100727.78;;;25.79;34.11
51468;BME280;37545;45.302;-122.946;2023-05-29T01:34:43;100729.63;;;25.77;34.49
51468;BME280;37545;45.302;-122.946;2023-05-29T01:37:11;100726.97;;;25.77;35.03
51468;BME280;37545;45.302;-122.946;2023-05-29T01:39:40;100733.16;;;25.77;34.11
51468;BME280;37545;45.302;-122.946;2023-05-29T01:42:11;100729.63;;;25.77;33.21
51468;BME280;37545;45.302;-122.946;2023-05-29T01:44:40;100720.97;;;25.71;33.56
51468;BME280;37545;45.302;-122.946;2023-05-29T01:47:09;100724.63;;;25.67;35.39
51468;BME280;37545;45.302;-122.946;2023-05-29T01:49:38;100727.44;;;25.63;33.57
51468;BME280;37545;45.302;-122.946;2023-05-29T01:52:07;100720.47;;;25.60;34.37
51468;BME280;37545;45.302;-122.946;2023-05-29T01:54:36;100719.06;;;25.50;35.38
51468;BME280;37545;45.302;-122.946;2023-05-29T01:57:06;100721.19;;;25.39;36.13
51468;BME280;37545;45.302;-122.946;2023-05-29T01:59:37;100713.53;;;25.29;36.97
51468;BME280;37545;45.302;-122.946;2023-05-29T02:02:07;100725.25;;;25.22;36.35
51468;BME280;37545;45.302;-122.946;2023-05-29T02:04:36;100714.09;;;25.11;35.84
51468;BME280;37545;45.302;-122.946;2023-05-29T02:07:04;100723.91;;;25.07;36.16
51468;BME280;37545;45.302;-122.946;2023-05-29T02:09:33;100718.75;;;25.03;36.57
51468;BME280;37545;45.302;-122.946;2023-05-29T02:12:02;100722.47;;;24.97;37.11
51468;BME280;37545;45.302;-122.946;2023-05-29T02:14:31;100720.13;;;24.86;36.27
51468;BME280;37545;45.302;-122.946;2023-05-29T02:17:01;100726.53;;;24.79;36.61
51468;BME280;37545;45.302;-122.946;2023-05-29T02:19:33;100722.41;;;24.69;36.22
51468;BME280;37545;45.302;-122.946;2023-05-29T02:22:03;100722.66;;;24.61;35.82
51468;BME280;37545;45.302;-122.946;2023-05-29T02:24:32;100727.25;;;24.55;38.23
51468;BME280;37545;45.302;-122.946;2023-05-29T02:27:00;100720.53;;;24.41;37.49
51468;BME280;37545;45.302;-122.946;2023-05-29T02:29:29;100725.91;;;24.38;38.20
51468;BME280;37545;45.302;-122.946;2023-05-29T02:31:58;100730.53;;;24.30;38.06
51468;BME280;37545;45.302;-122.946;2023-05-29T02:34:28;100731.63;;;24.23;38.12
51468;BME280;37545;45.302;-122.946;2023-05-29T02:36:56;100731.03;;;24.12;38.50
51468;BME280;37545;45.302;-122.946;2023-05-29T02:39:28;100719.75;;;24.07;37.84
51468;BME280;37545;45.302;-122.946;2023-05-29T02:41:56;100720.78;;;24.01;38.42
51468;BME280;37545;45.302;-122.946;2023-05-29T02:44:25;100726.22;;;23.95;38.93
51468;BME280;37545;45.302;-122.946;2023-05-29T02:46:54;100720.31;;;23.85;39.53
51468;BME280;37545;45.302;-122.946;2023-05-29T02:49:22;100728.44;;;23.77;39.71
51468;BME280;37545;45.302;-122.946;2023-05-29T02:51:53;100725.97;;;23.70;39.28
51468;BME280;37545;45.302;-122.946;2023-05-29T02:54:25;100727.84;;;23.65;39.52
51468;BME280;37545;45.302;-122.946;2023-05-29T02:56:54;100722.72;;;23.58;39.57
51468;BME280;37545;45.302;-122.946;2023-05-29T02:59:22;100725.59;;;23.49;39.87
51468;BME280;37545;45.302;-122.946;2023-05-29T03:01:51;100726.72;;;23.39;40.14
51468;BME280;37545;45.302;-122.946;2023-05-29T03:04:20;100728.59;;;23.34;40.69
51468;BME280;37545;45.302;-122.946;2023-05-29T03:06:49;100738.47;;;23.26;40.75
51468;BME280;37545;45.302;-122.946;2023-05-29T03:09:21;100733.44;;;23.15;42.06
51468;BME280;37545;45.302;-122.946;2023-05-29T03:11:49;100741.59;;;23.04;42.50
51468;BME280;37545;45.302;-122.946;2023-05-29T03:14:18;100732.94;;;22.96;41.58
51468;BME280;37545;45.302;-122.946;2023-05-29T03:16:49;100734.00;;;22.89;42.10
51468;BME280;37545;45.302;-122.946;2023-05-29T03:19:19;100739.47;;;22.79;41.29
51468;BME280;37545;45.302;-122.946;2023-05-29T03:21:47;100744.03;;;22.71;41.61
51468;BME280;37545;45.302;-122.946;2023-05-29T03:24:16;100749.47;;;22.64;40.41
51468;BME280;37545;45.302;-122.946;2023-05-29T03:26:49;100748.00;;;22.49;39.89
51468;BME280;37545;45.302;-122.946;2023-05-29T03:29:18;100746.47;;;22.37;41.62
51468;BME280;37545;45.302;-122.946;2023-05-29T03:31:47;100744.94;;;22.27;41.24
51468;BME280;37545;45.302;-122.946;2023-05-29T03:34:15;100745.16;;;22.13;40.31
51468;BME280;37545;45.302;-122.946;2023-05-29T03:36:44;100744.44;;;22.03;40.54
51468;BME280;37545;45.302;-122.946;2023-05-29T03:39:12;100743.81;;;21.89;41.70
51468;BME280;37545;45.302;-122.946;2023-05-29T03:41:41;100746.66;;;21.77;40.27
51468;BME280;37545;45.302;-122.946;2023-05-29T03:44:12;100744.19;;;21.66;40.78
51468;BME280;37545;45.302;-122.946;2023-05-29T03:46:40;100750.53;;;21.54;40.77
51468;BME280;37545;45.302;-122.946;2023-05-29T03:49:09;100750.66;;;21.46;41.48
51468;BME280;37545;45.302;-122.946;2023-05-29T03:51:39;100755.13;;;21.38;43.08
51468;BME280;37545;45.302;-122.946;2023-05-29T03:54:07;100753.50;;;21.31;42.44
51468;BME280;37545;45.302;-122.946;2023-05-29T03:56:36;100764.97;;;21.25;42.43
51468;BME280;37545;45.302;-122.946;2023-05-29T03:59:05;100758.06;;;21.18;42.19
51468;BME280;37545;45.302;-122.946;2023-05-29T04:01:35;100770.41;;;21.11;42.86
51468;BME280;37545;45.302;-122.946;2023-05-29T04:04:04;100771.41;;;21.04;43.68
51468;BME280;37545;45.302;-122.946;2023-05-29T04:06:39;100774.94;;;21.00;43.07
51468;BME280;37545;45.302;-122.946;2023-05-29T04:09:07;100768.13;;;20.87;43.41
51468;BME280;37545;45.302;-122.946;2023-05-29T04:11:37;100777.84;;;20.80;43.66
51468;BME280;37545;45.302;-122.946;2023-05-29T04:14:08;100780.63;;;20.68;45.03
51468;BME280;37545;45.302;-122.946;2023-05-29T04:16:38;100782.50;;;20.55;44.69
51468;BME280;37545;45.302;-122.946;2023-05-29T04:19:06;100772.16;;;20.40;44.27
51468;BME280;37545;45.302;-122.946;2023-05-29T04:21:35;100783.56;;;20.36;44.74
51468;BME280;37545;45.302;-122.946;2023-05-29T04:24:06;100791.53;;;20.28;46.62
51468;BME280;37545;45.302;-122.946;2023-05-29T04:26:34;100795.16;;;20.16;45.26
51468;BME280;37545;45.302;-122.946;2023-05-29T04:29:07;100797.84;;;20.10;45.63
51468;BME280;37545;45.302;-122.946;2023-05-29T04:31:40;100795.28;;;20.01;45.89
51468;BME280;37545;45.302;-122.946;2023-05-29T04:34:09;100796.25;;;19.94;46.49
51468;BME280;37545;45.302;-122.946;2023-05-29T04:36:37;100799.81;;;19.86;46.67
51468;BME280;37545;45.302;-122.946;2023-05-29T04:39:06;100799.88;;;19.77;46.45
51468;BME280;37545;45.302;-122.946;2023-05-29T04:41:35;100798.16;;;19.72;46.49
51468;BME280;37545;45.302;-122.946;2023-05-29T04:44:04;100795.56;;;19.64;47.61
51468;BME280;37545;45.302;-122.946;2023-05-29T04:46:32;100799.97;;;19.56;47.57
51468;BME280;37545;45.302;-122.946;2023-05-29T04:49:03;100802.66;;;19.50;47.46
51468;BME280;37545;45.302;-122.946;2023-05-29T04:51:32;100802.69;;;19.43;47.36
51468;BME280;37545;45.302;-122.946;2023-05-29T04:54:04;100813.22;;;19.37;47.42
51468;BME280;37545;45.302;-122.946;2023-05-29T04:56:35;100814.09;;;19.33;47.66
51468;BME280;37545;45.302;-122.946;2023-05-29T04:59:06;100815.06;;;19.23;48.23
51468;BME280;37545;45.302;-122.946;2023-05-29T05:01:35;100812.44;;;19.18;48.53
51468;BME280;37545;45.302;-122.946;2023-05-29T05:04:05;100815.13;;;19.11;49.75
51468;BME280;37545;45.302;-122.946;2023-05-29T05:06:34;100818.66;;;19.02;50.02
51468;BME280;37545;45.302;-122.946;2023-05-29T05:09:02;100821.28;;;18.96;50.34
51468;BME280;37545;45.302;-122.946;2023-05-29T05:11:31;100826.56;;;18.87;49.95
51468;BME280;37545;45.302;-122.946;2023-05-29T05:13:59;100818.75;;;18.79;49.96
51468;BME280;37545;45.302;-122.946;2023-05-29T05:16:28;100823.97;;;18.73;50.55
51468;BME280;37545;45.302;-122.946;2023-05-29T05:18:56;100823.13;;;18.65;53.08
51468;BME280;37545;45.302;-122.946;2023-05-29T05:21:26;100826.59;;;18.57;51.76
51468;BME280;37545;45.302;-122.946;2023-05-29T05:23:57;100821.38;;;18.48;51.08
51468;BME280;37545;45.302;-122.946;2023-05-29T05:26:25;100825.78;;;18.43;51.17
51468;BME280;37545;45.302;-122.946;2023-05-29T05:28:54;100830.16;;;18.36;51.54
51468;BME280;37545;45.302;-122.946;2023-05-29T05:31:23;100827.53;;;18.27;51.72
51468;BME280;37545;45.302;-122.946;2023-05-29T05:33:52;100822.31;;;18.21;51.96
51468;BME280;37545;45.302;-122.946;2023-05-29T05:36:20;100824.94;;;18.15;52.01
51468;BME280;37545;45.302;-122.946;2023-05-29T05:38:50;100825.78;;;18.09;52.91
51468;BME280;37545;45.302;-122.946;2023-05-29T05:41:19;100822.31;;;18.01;52.82
51468;BME280;37545;45.302;-122.946;2023-05-29T05:43:47;100819.69;;;17.95;53.23
51468;BME280;37545;45.302;-122.946;2023-05-29T05:46:16;100824.06;;;17.88;52.90
51468;BME280;37545;45.302;-122.946;2023-05-29T05:48:45;100828.41;;;17.83;53.07
51468;BME280;37545;45.302;-122.946;2023-05-29T05:51:13;100832.75;;;17.76;52.80
51468;BME280;37545;45.302;-122.946;2023-05-29T05:53:42;100832.72;;;17.70;53.79
51468;BME280;37545;45.302;-122.946;2023-05-29T05:56:13;100833.63;;;17.66;53.59
51468;BME280;37545;45.302;-122.946;2023-05-29T05:58:41;100824.88;;;17.59;54.29
51468;BME280;37545;45.302;-122.946;2023-05-29T06:01:10;100837.91;;;17.52;54.68
51468;BME280;37545;45.302;-122.946;2023-05-29T06:03:39;100828.34;;;17.46;54.44
51468;BME280;37545;45.302;-122.946;2023-05-29T06:06:07;100834.41;;;17.42;56.92
51468;BME280;37545;45.302;-122.946;2023-05-29T06:08:36;100828.31;;;17.37;56.49
51468;BME280;37545;45.302;-122.946;2023-05-29T06:11:06;100826.53;;;17.31;55.94
51468;BME280;37545;45.302;-122.946;2023-05-29T06:13:37;100831.75;;;17.28;55.80
51468;BME280;37545;45.302;-122.946;2023-05-29T06:16:05;100835.25;;;17.27;56.05
51468;BME280;37545;45.302;-122.946;2023-05-29T06:18:34;100833.47;;;17.25;55.99
51468;BME280;37545;45.302;-122.946;2023-05-29T06:21:02;100830.84;;;17.20;55.65
51468;BME280;37545;45.302;-122.946;2023-05-29T06:23:32;100830.84;;;17.17;55.37
51468;BME280;37545;45.302;-122.946;2023-05-29T06:26:00;100836.09;;;17.17;56.25
51468;BME280;37545;45.302;-122.946;2023-05-29T06:28:29;100829.09;;;17.07;56.13
51468;BME280;37545;45.302;-122.946;2023-05-29T06:30:59;100836.03;;;17.11;56.54
51468;BME280;37545;45.302;-122.946;2023-05-29T06:33:28;100839.53;;;17.07;56.40
51468;BME280;37545;45.302;-122.946;2023-05-29T06:35:56;100839.50;;;17.04;56.53
51468;BME280;37545;45.302;-122.946;2023-05-29T06:38:25;100823.78;;;16.91;56.72
51468;BME280;37545;45.302;-122.946;2023-05-29T06:40:53;100830.75;;;16.91;56.84
51468;BME280;37545;45.302;-122.946;2023-05-29T06:43:22;100825.47;;;16.83;56.83
51468;BME280;37545;45.302;-122.946;2023-05-29T06:45:50;100826.28;;;16.78;58.01
51468;BME280;37545;45.302;-122.946;2023-05-29T06:48:21;100823.66;;;16.70;58.18
51468;BME280;37545;45.302;-122.946;2023-05-29T06:50:49;100820.13;;;16.65;57.89
51468;BME280;37545;45.302;-122.946;2023-05-29T06:53:18;100821.84;;;16.60;58.05
51468;BME280;37545;45.302;-122.946;2023-05-29T06:55:46;100825.28;;;16.55;57.79
51468;BME280;37545;45.302;-122.946;2023-05-29T06:58:15;100824.41;;;16.52;58.90
51468;BME280;37545;45.302;-122.946;2023-05-29T07:00:43;100821.78;;;16.47;58.25
51468;BME280;37545;45.302;-122.946;2023-05-29T07:03:12;100816.50;;;16.44;58.73
51468;BME280;37545;45.302;-122.946;2023-05-29T07:05:42;100821.72;;;16.44;58.60
51468;BME280;37545;45.302;-122.946;2023-05-29T07:08:11;100819.13;;;16.44;58.15
51468;BME280;37545;45.302;-122.946;2023-05-29T07:10:39;100821.72;;;16.44;58.36
51468;BME280;37545;45.302;-122.946;2023-05-29T07:13:08;100825.19;;;16.42;59.18
51468;BME280;37545;45.302;-122.946;2023-05-29T07:15:37;100832.13;;;16.37;58.34
51468;BME280;37545;45.302;-122.946;2023-05-29T07:18:06;100827.78;;;16.36;59.05
51468;BME280;37545;45.302;-122.946;2023-05-29T07:20:35;100823.41;;;16.33;59.44
51468;BME280;37545;45.302;-122.946;2023-05-29T07:23:05;100824.25;;;16.30;58.77
51468;BME280;37545;45.302;-122.946;2023-05-29T07:25:34;100830.34;;;16.28;58.63
51468;BME280;37545;45.302;-122.946;2023-05-29T07:28:02;100825.09;;;16.25;59.57
51468;BME280;37545;45.302;-122.946;2023-05-29T07:30:31;100835.53;;;16.22;59.56
51468;BME280;37545;45.302;-122.946;2023-05-29T07:33:00;100837.25;;;16.20;60.83
51468;BME280;37545;45.302;-122.946;2023-05-29T07:35:28;100836.34;;;16.16;59.79
51468;BME280;37545;45.302;-122.946;2023-05-29T07:37:59;100835.41;;;16.12;59.60
51468;BME280;37545;45.302;-122.946;2023-05-29T07:40:29;100847.56;;;16.07;59.21
51468;BME280;37545;45.302;-122.946;2023-05-29T07:42:58;100839.72;;;16.01;59.79
51468;BME280;37545;45.302;-122.946;2023-05-29T07:45:27;100841.38;;;15.96;59.89
51468;BME280;37545;45.302;-122.946;2023-05-29T07:47:56;100836.16;;;15.93;60.64
51468;BME280;37545;45.302;-122.946;2023-05-29T07:50:24;100827.41;;;15.89;60.09
51468;BME280;37545;45.302;-122.946;2023-05-29T07:52:52;100833.47;;;15.85;60.52
51468;BME280;37545;45.302;-122.946;2023-05-29T07:55:22;100828.25;;;15.84;60.00
51468;BME280;37545;45.302;-122.946;2023-05-29T07:57:52;100835.16;;;15.82;60.29
51468;BME280;37545;45.302;-122.946;2023-05-29T08:00:21;100837.78;;;15.82;60.88
51468;BME280;37545;45.302;-122.946;2023-05-29T08:02:50;100832.53;;;15.80;60.22
51468;BME280;37545;45.302;-122.946;2023-05-29T08:05:19;100829.03;;;15.77;60.90
51468;BME280;37545;45.302;-122.946;2023-05-29T08:07:48;100825.53;;;15.75;60.46
51468;BME280;37545;45.302;-122.946;2023-05-29T08:10:17;100832.50;;;15.74;61.08
51468;BME280;37545;45.302;-122.946;2023-05-29T08:12:54;100825.44;;;15.68;61.29
51468;BME280;37545;45.302;-122.946;2023-05-29T08:15:22;100821.91;;;15.62;61.87
51468;BME280;37545;45.302;-122.946;2023-05-29T08:17:52;100827.09;;;15.59;61.74
51468;BME280;37545;45.302;-122.946;2023-05-29T08:20:21;100820.97;;;15.55;62.19
51468;BME280;37545;45.302;-122.946;2023-05-29T08:22:49;100819.22;;;15.54;61.71
51468;BME280;37545;45.302;-122.946;2023-05-29T08:25:18;100826.16;;;15.52;61.91
51468;BME280;37545;45.302;-122.946;2023-05-29T08:27:47;100826.13;;;15.49;61.84
51468;BME280;37545;45.302;-122.946;2023-05-29T08:30:17;100829.56;;;15.45;62.07
51468;BME280;37545;45.302;-122.946;2023-05-29T08:32:46;100833.84;;;15.41;61.42
51468;BME280;37545;45.302;-122.946;2023-05-29T08:35:16;100826.88;;;15.37;61.95
51468;BME280;37545;45.302;-122.946;2023-05-29T08:37:45;100822.47;;;15.32;60.93
51468;BME280;37545;45.302;-122.946;2023-05-29T08:40:13;100823.28;;;15.26;60.92
51468;BME280;37545;45.302;-122.946;2023-05-29T08:42:47;100829.34;;;15.23;60.88
51468;BME280;37545;45.302;-122.946;2023-05-29T08:45:18;100824.94;;;15.19;63.70
51468;BME280;37545;45.302;-122.946;2023-05-29T08:47:49;100834.44;;;15.16;66.55
51468;BME280;37545;45.302;-122.946;2023-05-29T08:50:20;100826.59;;;15.13;67.00
51468;BME280;37545;45.302;-122.946;2023-05-29T08:52:49;100827.38;;;15.07;65.33
51468;BME280;37545;45.302;-122.946;2023-05-29T08:55:18;100816.03;;;15.00;64.35
51468;BME280;37545;45.302;-122.946;2023-05-29T08:57:47;100822.88;;;14.95;65.21
51468;BME280;37545;45.302;-122.946;2023-05-29T09:00:19;100815.00;;;14.91;63.65
51468;BME280;37545;45.302;-122.946;2023-05-29T09:02:48;100813.22;;;14.86;64.02
51468;BME280;37545;45.302;-122.946;2023-05-29T09:05:26;100817.53;;;14.83;64.47
51468;BME280;37545;45.302;-122.946;2023-05-29T09:07:56;100813.09;;;14.77;64.83
51468;BME280;37545;45.302;-122.946;2023-05-29T09:10:25;100806.06;;;14.70;64.34
51468;BME280;37545;45.302;-122.946;2023-05-29T09:12:54;100810.38;;;14.66;63.32
51468;BME280;37545;45.302;-122.946;2023-05-29T09:15:24;100810.38;;;14.68;62.89
51468;BME280;37545;45.302;-122.946;2023-05-29T09:17:54;100807.78;;;14.68;62.06
51468;BME280;37545;45.302;-122.946;2023-05-29T09:20:24;100797.34;;;14.68;61.59
51468;BME280;37545;45.302;-122.946;2023-05-29T09:22:54;100806.03;;;14.67;61.26
51468;BME280;37545;45.302;-122.946;2023-05-29T09:25:24;100806.91;;;14.68;60.46
51468;BME280;37545;45.302;-122.946;2023-05-29T09:27:55;100812.97;;;14.68;60.10
51468;BME280;37545;45.302;-122.946;2023-05-29T09:30:37;100814.75;;;14.69;59.81
51468;BME280;37545;45.302;-122.946;2023-05-29T09:33:07;100818.19;;;14.68;59.03
51468;BME280;37545;45.302;-122.946;2023-05-29T09:35:36;100819.94;;;14.69;59.95
51468;BME280;37545;45.302;-122.946;2023-05-29T09:38:06;100823.41;;;14.68;58.51
51468;BME280;37545;45.302;-122.946;2023-05-29T09:40:36;100818.19;;;14.68;58.90
51468;BME280;37545;45.302;-122.946;2023-05-29T09:43:09;100816.44;;;14.67;58.29
51468;BME280;37545;45.302;-122.946;2023-05-29T09:45:40;100817.31;;;14.66;58.44
51468;BME280;37545;45.302;-122.946;2023-05-29T09:48:12;100823.34;;;14.62;58.41
51468;BME280;37545;45.302;-122.946;2023-05-29T09:50:41;100816.31;;;14.58;58.56
51468;BME280;37545;45.302;-122.946;2023-05-29T09:53:18;100814.47;;;14.51;59.75
51468;BME280;37545;45.302;-122.946;2023-05-29T09:55:48;100823.03;;;14.45;58.79
51468;BME280;37545;45.302;-122.946;2023-05-29T09:58:18;100821.22;;;14.39;59.36
51468;BME280;37545;45.302;-122.946;2023-05-29T10:00:49;100821.13;;;14.33;61.20
51468;BME280;37545;45.302;-122.946;2023-05-29T10:03:18;100823.66;;;14.27;61.17
51468;BME280;37545;45.302;-122.946;2023-05-29T10:05:50;100827.97;;;14.25;60.66
51468;BME280;37545;45.302;-122.946;2023-05-29T10:08:19;100822.75;;;14.25;60.08
51468;BME280;37545;45.302;-122.946;2023-05-29T10:10:54;100827.06;;;14.23;60.02
51468;BME280;37545;45.302;-122.946;2023-05-29T10:13:25;100822.66;;;14.19;60.34
51468;BME280;37545;45.302;-122.946;2023-05-29T10:15:59;100833.03;;;14.16;60.53
51468;BME280;37545;45.302;-122.946;2023-05-29T10:18:34;100836.41;;;14.12;61.79
51468;BME280;37545;45.302;-122.946;2023-05-29T10:21:04;100848.38;;;14.00;61.90
51468;BME280;37545;45.302;-122.946;2023-05-29T10:23:37;100848.25;;;13.93;62.64
51468;BME280;37545;45.302;-122.946;2023-05-29T10:26:10;100849.91;;;13.89;62.25
51468;BME280;37545;45.302;-122.946;2023-05-29T10:28:43;100848.19;;;13.88;62.77
51468;BME280;37545;45.302;-122.946;2023-05-29T10:31:15;100844.66;;;13.86;62.92
51468;BME280;37545;45.302;-122.946;2023-05-29T10:33:56;100832.50;;;13.83;62.49
51468;BME280;37545;45.302;-122.946;2023-05-29T10:36:32;100849.78;;;13.83;62.60
51468;BME280;37545;45.302;-122.946;2023-05-29T10:39:04;100841.09;;;13.81;62.86
51468;BME280;37545;45.302;-122.946;2023-05-29T10:41:34;100827.22;;;13.79;63.03
51468;BME280;37545;45.302;-122.946;2023-05-29T10:44:38;100834.03;;;13.74;62.56
51468;BME280;37545;45.302;-122.946;2023-05-29T10:47:11;100831.34;;;13.69;62.00
51468;BME280;37545;45.302;-122.946;2023-05-29T10:49:49;100829.53;;;13.65;62.07
51468;BME280;37545;45.302;-122.946;2023-05-29T10:52:19;100827.78;;;13.64;62.49
51468;BME280;37545;45.302;-122.946;2023-05-29T10:54:53;100825.16;;;13.62;64.23
51468;BME280;37545;45.302;-122.946;2023-05-29T10:57:24;100822.47;;;13.58;65.80
51468;BME280;37545;45.302;-122.946;2023-05-29T11:00:00;100837.09;;;13.51;65.85
51468;BME280;37545;45.302;-122.946;2023-05-29T11:02:36;100834.38;;;13.45;66.38
51468;BME280;37545;45.302;-122.946;2023-05-29T11:07:57;100844.56;;;13.34;66.04
51468;BME280;37545;45.302;-122.946;2023-05-29T11:10:55;100843.63;;;13.31;66.26
51468;BME280;37545;45.302;-122.946;2023-05-29T11:13:25;100848.81;;;13.31;65.97
51468;BME280;37545;45.302;-122.946;2023-05-29T11:16:35;100846.22;;;13.29;65.52
51468;BME280;37545;45.302;-122.946;2023-05-29T11:19:07;100853.97;;;13.28;65.67
51468;BME280;37545;45.302;-122.946;2023-05-29T11:21:53;100846.91;;;13.24;66.13
51468;BME280;37545;45.302;-122.946;2023-05-29T11:24:28;100845.13;;;13.19;65.77
51468;BME280;37545;45.302;-122.946;2023-05-29T11:26:57;100846.75;;;13.16;66.32
51468;BME280;37545;45.302;-122.946;2023-05-29T11:29:31;100851.88;;;13.11;66.89
51468;BME280;37545;45.302;-122.946;2023-05-29T11:32:02;100850.03;;;13.07;66.91
51468;BME280;37545;45.302;-122.946;2023-05-29T11:34:33;100849.09;;;13.02;67.00
51468;BME280;37545;45.302;-122.946;2023-05-29T11:37:02;100851.53;;;12.96;67.04
51468;BME280;37545;45.302;-122.946;2023-05-29T11:39:31;100852.31;;;12.90;67.19
51468;BME280;37545;45.302;-122.946;2023-05-29T11:42:04;100851.34;;;12.85;67.25
51468;BME280;37545;45.302;-122.946;2023-05-29T11:44:33;100852.09;;;12.81;67.30
51468;BME280;37545;45.302;-122.946;2023-05-29T11:47:02;100851.13;;;12.77;67.12
51468;BME280;37545;45.302;-122.946;2023-05-29T11:49:33;100851.81;;;12.69;68.14
51468;BME280;37545;45.302;-122.946;2023-05-29T11:52:07;100852.41;;;12.57;69.83
51468;BME280;37545;45.302;-122.946;2023-05-29T11:54:36;100854.78;;;12.48;70.09
51468;BME280;37545;45.302;-122.946;2023-05-29T11:57:04;100855.53;;;12.42;71.32
51468;BME280;37545;45.302;-122.946;2023-05-29T11:59:33;100857.19;;;12.39;71.91
51468;BME280;37545;45.302;-122.946;2023-05-29T12:02:03;100855.38;;;12.36;72.22
51468;BME280;37545;45.302;-122.946;2023-05-29T12:04:33;100857.13;;;12.35;72.87
51468;BME280;37545;45.302;-122.946;2023-05-29T12:07:02;100851.94;;;12.35;72.94
51468;BME280;37545;45.302;-122.946;2023-05-29T12:09:44;100854.53;;;12.35;72.40
51468;BME280;37545;45.302;-122.946;2023-05-29T12:12:14;100858.78;;;12.33;72.97
51468;BME280;37545;45.302;-122.946;2023-05-29T12:14:42;100854.41;;;12.31;73.53
51468;BME280;37545;45.302;-122.946;2023-05-29T12:17:11;100855.22;;;12.28;73.69
51468;BME280;37545;45.302;-122.946;2023-05-29T12:19:41;100847.31;;;12.24;73.75
51468;BME280;37545;45.302;-122.946;2023-05-29T12:22:10;100854.19;;;12.22;73.77
51468;BME280;37545;45.302;-122.946;2023-05-29T12:24:38;100853.22;;;12.18;74.42
51468;BME280;37545;45.302;-122.946;2023-05-29T12:27:08;100853.00;;;12.09;76.43
51468;BME280;37545;45.302;-122.946;2023-05-29T12:29:37;100858.81;;;11.99;76.45
51468;BME280;37545;45.302;-122.946;2023-05-29T12:32:10;100860.38;;;11.92;77.38
51468;BME280;37545;45.302;-122.946;2023-05-29T12:34:40;100857.66;;;11.87;77.88
51468;BME280;37545;45.302;-122.946;2023-05-29T12:37:09;100855.94;;;11.88;78.25
51468;BME280;37545;45.302;-122.946;2023-05-29T12:39:40;100858.44;;;11.86;77.30